sensor_id;sensor_type;location;lat;lon;timestamp;P1;durP1;ratioP1;P2;durP2;ratioP2
46875;SDS011;32866;50.160;14.768;2022-07-18T00:01:37;3.35;;;1.67;;
46875;SDS011;32866;50.160;14.768;2022-07-18T00:04:02;4.43;;;1.88;;
46875;SDS011;32866;50.160;14.768;2022-07-18T00:06:28;3.95;;;2.17;;
46875;SDS011;32866;50.160;14.768;2022-07-18T00:08:53;2.80;;;2.08;;
46875;SDS011;32866;50.160;14.768;2022-07-18T00:11:19;1.88;;;1.70;;
46875;SDS011;32866;50.160;14.768;2022-07-18T00:13:45;4.97;;;1.80;;
46875;SDS011;32866;50.160;14.768;2022-07-18T00:16:11;2.22;;;1.80;;
46875;SDS011;32866;50.160;14.768;2022-07-18T00:18:37;3.05;;;1.73;;
46875;SDS011;32866;50.160;14.768;2022-07-18T00:21:02;1.70;;;1.60;;
46875;SDS011;32866;50.160;14.768;2022-07-18T00:23:27;4.35;;;2.10;;
46875;SDS011;32866;50.160;14.768;2022-07-18T00:25:53;5.90;;;2.05;;
46875;SDS011;32866;50.160;14.768;2022-07-18T00:28:18;3.20;;;1.90;;
46875;SDS011;32866;50.160;14.768;2022-07-18T00:30:44;4.35;;;1.90;;
46875;SDS011;32866;50.160;14.768;2022-07-18T00:33:09;3.00;;;1.92;;
46875;SDS011;32866;50.160;14.768;2022-07-18T00:35:35;3.08;;;2.78;;
46875;SDS011;32866;50.160;14.768;2022-07-18T00:38:00;2.75;;;2.45;;
46875;SDS011;32866;50.160;14.768;2022-07-18T00:40:29;4.07;;;1.97;;
46875;SDS011;32866;50.160;14.768;2022-07-18T00:42:55;3.03;;;1.90;;
46875;SDS011;32866;50.160;14.768;2022-07-18T00:45:21;3.75;;;1.70;;
46875;SDS011;32866;50.160;14.768;2022-07-18T00:47:46;7.05;;;2.35;;
46875;SDS011;32866;50.160;14.768;2022-07-18T00:50:12;5.10;;;2.45;;
46875;SDS011;32866;50.160;14.768;2022-07-18T00:52:37;5.35;;;2.40;;
46875;SDS011;32866;50.160;14.768;2022-07-18T00:55:06;2.65;;;2.00;;
46875;SDS011;32866;50.160;14.768;2022-07-18T00:57:32;6.57;;;2.03;;
46875;SDS011;32866;50.160;14.768;2022-07-18T00:59:57;4.05;;;2.30;;
46875;SDS011;32866;50.160;14.768;2022-07-18T01:02:41;6.40;;;2.27;;
46875;SDS011;32866;50.160;14.768;2022-07-18T01:05:07;4.03;;;1.92;;
46875;SDS011;32866;50.160;14.768;2022-07-18T01:07:36;7.73;;;1.73;;
46875;SDS011;32866;50.160;14.768;2022-07-18T01:10:03;4.87;;;2.43;;
46875;SDS011;32866;50.160;14.768;2022-07-18T01:12:29;3.10;;;2.00;;
46875;SDS011;32866;50.160;14.768;2022-07-18T01:14:55;5.10;;;2.15;;
46875;SDS011;32866;50.160;14.768;2022-07-18T01:17:22;2.93;;;1.90;;
46875;SDS011;32866;50.160;14.768;2022-07-18T01:19:48;10.85;;;2.50;;
46875;SDS011;32866;50.160;14.768;2022-07-18T01:22:14;3.63;;;2.20;;
46875;SDS011;32866;50.160;14.768;2022-07-18T01:24:42;3.17;;;2.37;;
46875;SDS011;32866;50.160;14.768;2022-07-18T01:27:08;3.63;;;2.45;;
46875;SDS011;32866;50.160;14.768;2022-07-18T01:29:33;3.10;;;2.05;;
46875;SDS011;32866;50.160;14.768;2022-07-18T01:32:05;3.72;;;2.25;;
46875;SDS011;32866;50.160;14.768;2022-07-18T01:34:32;1.93;;;1.70;;
46875;SDS011;32866;50.160;14.768;2022-07-18T01:36:58;4.68;;;2.20;;
46875;SDS011;32866;50.160;14.768;2022-07-18T01:39:24;3.73;;;1.87;;
46875;SDS011;32866;50.160;14.768;2022-07-18T01:41:56;3.70;;;1.90;;
46875;SDS011;32866;50.160;14.768;2022-07-18T01:44:26;3.03;;;2.10;;
46875;SDS011;32866;50.160;14.768;2022-07-18T01:46:52;3.70;;;1.83;;
46875;SDS011;32866;50.160;14.768;2022-07-18T01:49:18;4.28;;;2.20;;
46875;SDS011;32866;50.160;14.768;2022-07-18T01:51:44;4.10;;;2.25;;
46875;SDS011;32866;50.160;14.768;2022-07-18T01:54:11;4.17;;;2.03;;
46875;SDS011;32866;50.160;14.768;2022-07-18T01:56:36;3.78;;;1.60;;
46875;SDS011;32866;50.160;14.768;2022-07-18T01:59:02;4.03;;;2.13;;
46875;SDS011;32866;50.160;14.768;2022-07-18T02:01:27;3.33;;;2.15;;
46875;SDS011;32866;50.160;14.768;2022-07-18T02:03:53;2.95;;;2.13;;
46875;SDS011;32866;50.160;14.768;2022-07-18T02:06:18;4.50;;;2.00;;
46875;SDS011;32866;50.160;14.768;2022-07-18T02:08:44;2.58;;;2.08;;
46875;SDS011;32866;50.160;14.768;2022-07-18T02:11:09;6.28;;;2.28;;
46875;SDS011;32866;50.160;14.768;2022-07-18T02:13:34;6.65;;;1.85;;
46875;SDS011;32866;50.160;14.768;2022-07-18T02:16:00;3.20;;;2.33;;
46875;SDS011;32866;50.160;14.768;2022-07-18T02:18:26;3.00;;;1.83;;
46875;SDS011;32866;50.160;14.768;2022-07-18T02:20:51;3.13;;;1.92;;
46875;SDS011;32866;50.160;14.768;2022-07-18T02:23:17;4.30;;;1.95;;
46875;SDS011;32866;50.160;14.768;2022-07-18T02:25:42;5.90;;;2.17;;
46875;SDS011;32866;50.160;14.768;2022-07-18T02:28:08;3.38;;;1.80;;
46875;SDS011;32866;50.160;14.768;2022-07-18T02:30:33;5.05;;;1.90;;
46875;SDS011;32866;50.160;14.768;2022-07-18T02:32:58;4.95;;;1.88;;
46875;SDS011;32866;50.160;14.768;2022-07-18T02:35:24;4.00;;;2.05;;
46875;SDS011;32866;50.160;14.768;2022-07-18T02:37:50;3.58;;;1.60;;
46875;SDS011;32866;50.160;14.768;2022-07-18T02:40:15;2.83;;;1.83;;
46875;SDS011;32866;50.160;14.768;2022-07-18T02:42:41;2.95;;;2.33;;
46875;SDS011;32866;50.160;14.768;2022-07-18T02:45:06;3.78;;;2.08;;
46875;SDS011;32866;50.160;14.768;2022-07-18T02:47:33;3.67;;;2.70;;
46875;SDS011;32866;50.160;14.768;2022-07-18T02:49:58;8.60;;;2.78;;
46875;SDS011;32866;50.160;14.768;2022-07-18T02:52:24;4.85;;;2.95;;
46875;SDS011;32866;50.160;14.768;2022-07-18T02:54:49;5.82;;;3.67;;
46875;SDS011;32866;50.160;14.768;2022-07-18T02:57:15;9.00;;;3.45;;
46875;SDS011;32866;50.160;14.768;2022-07-18T02:59:40;6.80;;;3.53;;
46875;SDS011;32866;50.160;14.768;2022-07-18T03:02:06;5.13;;;3.33;;
46875;SDS011;32866;50.160;14.768;2022-07-18T03:04:31;8.82;;;2.60;;
46875;SDS011;32866;50.160;14.768;2022-07-18T03:06:57;4.53;;;2.53;;
46875;SDS011;32866;50.160;14.768;2022-07-18T03:09:22;2.78;;;2.20;;
46875;SDS011;32866;50.160;14.768;2022-07-18T03:11:47;5.97;;;2.47;;
46875;SDS011;32866;50.160;14.768;2022-07-18T03:14:13;7.78;;;3.25;;
46875;SDS011;32866;50.160;14.768;2022-07-18T03:16:39;7.13;;;2.35;;
46875;SDS011;32866;50.160;14.768;2022-07-18T03:19:04;3.20;;;2.03;;
46875;SDS011;32866;50.160;14.768;2022-07-18T03:21:30;3.83;;;2.50;;
46875;SDS011;32866;50.160;14.768;2022-07-18T03:23:55;9.32;;;2.35;;
46875;SDS011;32866;50.160;14.768;2022-07-18T03:26:21;5.63;;;2.50;;
46875;SDS011;32866;50.160;14.768;2022-07-18T03:28:46;4.28;;;1.58;;
46875;SDS011;32866;50.160;14.768;2022-07-18T03:31:12;3.75;;;2.00;;
46875;SDS011;32866;50.160;14.768;2022-07-18T03:33:38;5.28;;;2.50;;
46875;SDS011;32866;50.160;14.768;2022-07-18T03:36:04;2.30;;;1.93;;
46875;SDS011;32866;50.160;14.768;2022-07-18T03:38:30;4.13;;;2.97;;
46875;SDS011;32866;50.160;14.768;2022-07-18T03:40:55;4.03;;;2.20;;
46875;SDS011;32866;50.160;14.768;2022-07-18T03:43:21;2.05;;;1.83;;
46875;SDS011;32866;50.160;14.768;2022-07-18T03:45:47;2.65;;;2.15;;
46875;SDS011;32866;50.160;14.768;2022-07-18T03:48:12;3.38;;;1.80;;
46875;SDS011;32866;50.160;14.768;2022-07-18T03:50:38;3.58;;;2.03;;
46875;SDS011;32866;50.160;14.768;2022-07-18T03:53:03;8.27;;;2.65;;
46875;SDS011;32866;50.160;14.768;2022-07-18T03:55:29;5.13;;;1.90;;
46875;SDS011;32866;50.160;14.768;2022-07-18T03:57:54;4.22;;;2.35;;
46875;SDS011;32866;50.160;14.768;2022-07-18T04:00:20;4.03;;;2.97;;
46875;SDS011;32866;50.160;14.768;2022-07-18T04:02:46;4.63;;;2.15;;
46875;SDS011;32866;50.160;14.768;2022-07-18T04:05:12;5.77;;;2.20;;
46875;SDS011;32866;50.160;14.768;2022-07-18T04:10:04;3.20;;;2.10;;
46875;SDS011;32866;50.160;14.768;2022-07-18T04:12:30;3.80;;;2.03;;
46875;SDS011;32866;50.160;14.768;2022-07-18T04:14:56;2.42;;;2.05;;
46875;SDS011;32866;50.160;14.768;2022-07-18T04:17:22;4.70;;;2.58;;
46875;SDS011;32866;50.160;14.768;2022-07-18T04:19:47;4.20;;;2.05;;
46875;SDS011;32866;50.160;14.768;2022-07-18T04:22:13;4.35;;;2.45;;
46875;SDS011;32866;50.160;14.768;2022-07-18T04:24:38;5.00;;;2.05;;
46875;SDS011;32866;50.160;14.768;2022-07-18T04:27:04;6.70;;;2.40;;
46875;SDS011;32866;50.160;14.768;2022-07-18T04:29:29;4.22;;;2.50;;
46875;SDS011;32866;50.160;14.768;2022-07-18T04:31:56;3.73;;;2.03;;
46875;SDS011;32866;50.160;14.768;2022-07-18T04:34:24;3.60;;;2.20;;
46875;SDS011;32866;50.160;14.768;2022-07-18T04:36:50;2.10;;;1.77;;
46875;SDS011;32866;50.160;14.768;2022-07-18T04:39:15;4.25;;;2.20;;
46875;SDS011;32866;50.160;14.768;2022-07-18T04:41:41;9.57;;;2.20;;
46875;SDS011;32866;50.160;14.768;2022-07-18T04:44:09;4.30;;;2.10;;
46875;SDS011;32866;50.160;14.768;2022-07-18T04:46:35;8.45;;;2.70;;
46875;SDS011;32866;50.160;14.768;2022-07-18T04:49:00;4.20;;;2.63;;
46875;SDS011;32866;50.160;14.768;2022-07-18T04:51:25;3.90;;;2.13;;
46875;SDS011;32866;50.160;14.768;2022-07-18T04:53:51;5.40;;;2.10;;
46875;SDS011;32866;50.160;14.768;2022-07-18T04:58:42;4.70;;;2.60;;
46875;SDS011;32866;50.160;14.768;2022-07-18T05:01:08;5.65;;;2.47;;
46875;SDS011;32866;50.160;14.768;2022-07-18T05:03:33;3.67;;;2.67;;
46875;SDS011;32866;50.160;14.768;2022-07-18T05:05:58;4.10;;;2.50;;
46875;SDS011;32866;50.160;14.768;2022-07-18T05:08:24;8.02;;;2.58;;
46875;SDS011;32866;50.160;14.768;2022-07-18T05:10:49;6.95;;;2.55;;
46875;SDS011;32866;50.160;14.768;2022-07-18T05:13:15;3.15;;;2.22;;
46875;SDS011;32866;50.160;14.768;2022-07-18T05:18:06;4.27;;;2.30;;
46875;SDS011;32866;50.160;14.768;2022-07-18T05:20:32;3.75;;;1.90;;
46875;SDS011;32866;50.160;14.768;2022-07-18T05:22:58;2.70;;;1.83;;
46875;SDS011;32866;50.160;14.768;2022-07-18T05:25:23;7.03;;;2.88;;
46875;SDS011;32866;50.160;14.768;2022-07-18T05:27:49;3.05;;;2.33;;
46875;SDS011;32866;50.160;14.768;2022-07-18T05:30:15;4.68;;;2.53;;
46875;SDS011;32866;50.160;14.768;2022-07-18T05:32:41;2.80;;;1.85;;
46875;SDS011;32866;50.160;14.768;2022-07-18T05:35:08;4.60;;;2.47;;
46875;SDS011;32866;50.160;14.768;2022-07-18T05:37:34;2.45;;;1.80;;
46875;SDS011;32866;50.160;14.768;2022-07-18T05:40:02;2.58;;;1.90;;
46875;SDS011;32866;50.160;14.768;2022-07-18T05:42:32;4.97;;;1.92;;
46875;SDS011;32866;50.160;14.768;2022-07-18T05:44:57;4.35;;;1.88;;
46875;SDS011;32866;50.160;14.768;2022-07-18T05:47:23;5.07;;;1.80;;
46875;SDS011;32866;50.160;14.768;2022-07-18T05:49:48;3.15;;;1.65;;
46875;SDS011;32866;50.160;14.768;2022-07-18T05:52:14;3.28;;;2.13;;
46875;SDS011;32866;50.160;14.768;2022-07-18T05:57:04;4.50;;;2.45;;
46875;SDS011;32866;50.160;14.768;2022-07-18T05:59:30;4.32;;;2.30;;
46875;SDS011;32866;50.160;14.768;2022-07-18T06:01:55;9.82;;;4.03;;
46875;SDS011;32866;50.160;14.768;2022-07-18T06:06:46;5.80;;;2.35;;
46875;SDS011;32866;50.160;14.768;2022-07-18T06:09:13;3.25;;;2.13;;
46875;SDS011;32866;50.160;14.768;2022-07-18T06:14:04;3.70;;;2.47;;
46875;SDS011;32866;50.160;14.768;2022-07-18T06:18:55;6.38;;;3.30;;
46875;SDS011;32866;50.160;14.768;2022-07-18T06:21:22;5.70;;;2.63;;
46875;SDS011;32866;50.160;14.768;2022-07-18T06:26:13;7.95;;;2.40;;
46875;SDS011;32866;50.160;14.768;2022-07-18T06:31:03;8.05;;;3.38;;
46875;SDS011;32866;50.160;14.768;2022-07-18T06:35:54;5.20;;;2.20;;
46875;SDS011;32866;50.160;14.768;2022-07-18T06:40:45;6.47;;;2.53;;
46875;SDS011;32866;50.160;14.768;2022-07-18T06:45:35;5.63;;;1.80;;
46875;SDS011;32866;50.160;14.768;2022-07-18T06:50:26;3.58;;;2.03;;
46875;SDS011;32866;50.160;14.768;2022-07-18T06:55:17;8.48;;;2.15;;
46875;SDS011;32866;50.160;14.768;2022-07-18T07:00:09;3.65;;;2.05;;
46875;SDS011;32866;50.160;14.768;2022-07-18T07:02:42;13.27;;;2.55;;
46875;SDS011;32866;50.160;14.768;2022-07-18T07:05:13;3.60;;;1.88;;
46875;SDS011;32866;50.160;14.768;2022-07-18T07:07:40;2.92;;;2.10;;
46875;SDS011;32866;50.160;14.768;2022-07-18T07:10:06;5.60;;;1.80;;
46875;SDS011;32866;50.160;14.768;2022-07-18T07:15:04;8.07;;;2.53;;
46875;SDS011;32866;50.160;14.768;2022-07-18T07:17:30;7.45;;;2.47;;
46875;SDS011;32866;50.160;14.768;2022-07-18T07:22:21;6.10;;;2.15;;
46875;SDS011;32866;50.160;14.768;2022-07-18T07:27:12;3.60;;;2.20;;
46875;SDS011;32866;50.160;14.768;2022-07-18T07:29:37;4.30;;;3.03;;
46875;SDS011;32866;50.160;14.768;2022-07-18T07:34:28;3.47;;;1.85;;
46875;SDS011;32866;50.160;14.768;2022-07-18T07:36:55;9.05;;;2.70;;
46875;SDS011;32866;50.160;14.768;2022-07-18T07:41:45;2.10;;;1.58;;
46875;SDS011;32866;50.160;14.768;2022-07-18T07:44:11;4.22;;;1.80;;
46875;SDS011;32866;50.160;14.768;2022-07-18T07:46:36;3.55;;;2.33;;
46875;SDS011;32866;50.160;14.768;2022-07-18T07:49:01;2.08;;;1.20;;
46875;SDS011;32866;50.160;14.768;2022-07-18T07:51:27;4.93;;;1.88;;
46875;SDS011;32866;50.160;14.768;2022-07-18T07:53:52;3.53;;;1.50;;
46875;SDS011;32866;50.160;14.768;2022-07-18T07:56:18;3.08;;;1.58;;
46875;SDS011;32866;50.160;14.768;2022-07-18T07:58:44;7.97;;;1.85;;
46875;SDS011;32866;50.160;14.768;2022-07-18T08:01:10;4.65;;;1.50;;
46875;SDS011;32866;50.160;14.768;2022-07-18T08:03:37;2.88;;;1.80;;
46875;SDS011;32866;50.160;14.768;2022-07-18T08:06:02;4.40;;;1.45;;
46875;SDS011;32866;50.160;14.768;2022-07-18T08:08:28;3.42;;;1.73;;
46875;SDS011;32866;50.160;14.768;2022-07-18T08:10:53;24.38;;;3.47;;
46875;SDS011;32866;50.160;14.768;2022-07-18T08:13:18;6.47;;;2.03;;
46875;SDS011;32866;50.160;14.768;2022-07-18T08:15:44;1.98;;;1.35;;
46875;SDS011;32866;50.160;14.768;2022-07-18T08:18:09;4.00;;;1.98;;
46875;SDS011;32866;50.160;14.768;2022-07-18T08:20:34;3.38;;;1.80;;
46875;SDS011;32866;50.160;14.768;2022-07-18T08:23:04;7.22;;;2.47;;
46875;SDS011;32866;50.160;14.768;2022-07-18T08:25:31;2.97;;;1.52;;
46875;SDS011;32866;50.160;14.768;2022-07-18T08:27:58;3.33;;;1.48;;
46875;SDS011;32866;50.160;14.768;2022-07-18T08:30:24;3.05;;;1.83;;
46875;SDS011;32866;50.160;14.768;2022-07-18T08:32:50;4.40;;;1.80;;
46875;SDS011;32866;50.160;14.768;2022-07-18T08:35:15;2.13;;;1.65;;
46875;SDS011;32866;50.160;14.768;2022-07-18T08:37:41;7.00;;;1.85;;
46875;SDS011;32866;50.160;14.768;2022-07-18T08:40:07;2.85;;;1.60;;
46875;SDS011;32866;50.160;14.768;2022-07-18T08:42:34;3.20;;;1.67;;
46875;SDS011;32866;50.160;14.768;2022-07-18T08:45:00;3.50;;;1.30;;
46875;SDS011;32866;50.160;14.768;2022-07-18T08:47:26;5.35;;;1.15;;
46875;SDS011;32866;50.160;14.768;2022-07-18T08:49:54;17.27;;;2.15;;
46875;SDS011;32866;50.160;14.768;2022-07-18T08:52:20;30.60;;;4.07;;
46875;SDS011;32866;50.160;14.768;2022-07-18T08:54:45;5.15;;;1.08;;
46875;SDS011;32866;50.160;14.768;2022-07-18T08:57:13;3.05;;;1.33;;
46875;SDS011;32866;50.160;14.768;2022-07-18T08:59:39;12.85;;;1.90;;
46875;SDS011;32866;50.160;14.768;2022-07-18T09:02:05;3.70;;;1.52;;
46875;SDS011;32866;50.160;14.768;2022-07-18T09:04:36;4.93;;;1.30;;
46875;SDS011;32866;50.160;14.768;2022-07-18T09:07:07;3.80;;;2.35;;
46875;SDS011;32866;50.160;14.768;2022-07-18T09:09:34;3.97;;;1.48;;
46875;SDS011;32866;50.160;14.768;2022-07-18T09:12:04;2.22;;;1.48;;
46875;SDS011;32866;50.160;14.768;2022-07-18T09:17:14;2.55;;;1.60;;
46875;SDS011;32866;50.160;14.768;2022-07-18T09:19:43;4.63;;;1.30;;
46875;SDS011;32866;50.160;14.768;2022-07-18T09:22:22;2.08;;;1.50;;
46875;SDS011;32866;50.160;14.768;2022-07-18T09:24:49;1.88;;;0.95;;
46875;SDS011;32866;50.160;14.768;2022-07-18T09:27:25;4.47;;;1.42;;
46875;SDS011;32866;50.160;14.768;2022-07-18T09:30:07;1.73;;;1.27;;
46875;SDS011;32866;50.160;14.768;2022-07-18T09:32:37;1.77;;;0.93;;
46875;SDS011;32866;50.160;14.768;2022-07-18T09:35:04;2.42;;;1.25;;
46875;SDS011;32866;50.160;14.768;2022-07-18T09:37:30;2.22;;;0.80;;
46875;SDS011;32866;50.160;14.768;2022-07-18T09:40:13;2.42;;;1.10;;
46875;SDS011;32866;50.160;14.768;2022-07-18T09:45:08;4.47;;;1.30;;
46875;SDS011;32866;50.160;14.768;2022-07-18T09:47:50;7.88;;;1.20;;
46875;SDS011;32866;50.160;14.768;2022-07-18T09:50:24;1.88;;;1.17;;
46875;SDS011;32866;50.160;14.768;2022-07-18T09:53:02;3.70;;;0.90;;
46875;SDS011;32866;50.160;14.768;2022-07-18T09:55:32;3.30;;;1.30;;
46875;SDS011;32866;50.160;14.768;2022-07-18T10:00:27;2.90;;;1.00;;
46875;SDS011;32866;50.160;14.768;2022-07-18T10:02:54;1.30;;;0.88;;
46875;SDS011;32866;50.160;14.768;2022-07-18T10:05:19;1.65;;;0.68;;
46875;SDS011;32866;50.160;14.768;2022-07-18T10:07:45;2.65;;;0.88;;
46875;SDS011;32866;50.160;14.768;2022-07-18T10:10:13;1.35;;;0.73;;
46875;SDS011;32866;50.160;14.768;2022-07-18T10:12:40;2.83;;;1.30;;
46875;SDS011;32866;50.160;14.768;2022-07-18T10:15:06;2.10;;;1.13;;
46875;SDS011;32866;50.160;14.768;2022-07-18T10:17:33;1.05;;;0.90;;
46875;SDS011;32866;50.160;14.768;2022-07-18T10:20:02;2.03;;;1.13;;
46875;SDS011;32866;50.160;14.768;2022-07-18T10:22:30;1.70;;;1.10;;
46875;SDS011;32866;50.160;14.768;2022-07-18T10:25:04;3.42;;;0.82;;
46875;SDS011;32866;50.160;14.768;2022-07-18T10:27:46;1.30;;;1.00;;
46875;SDS011;32866;50.160;14.768;2022-07-18T10:30:13;1.20;;;0.80;;
46875;SDS011;32866;50.160;14.768;2022-07-18T10:32:40;3.17;;;1.27;;
46875;SDS011;32866;50.160;14.768;2022-07-18T10:35:06;2.10;;;1.10;;
46875;SDS011;32866;50.160;14.768;2022-07-18T10:37:33;1.95;;;1.25;;
46875;SDS011;32866;50.160;14.768;2022-07-18T10:40:20;2.35;;;1.10;;
46875;SDS011;32866;50.160;14.768;2022-07-18T10:45:57;3.88;;;1.63;;
46875;SDS011;32866;50.160;14.768;2022-07-18T10:51:07;2.05;;;1.20;;
46875;SDS011;32866;50.160;14.768;2022-07-18T10:57:04;3.28;;;0.98;;
46875;SDS011;32866;50.160;14.768;2022-07-18T10:59:17;4.88;;;1.10;;
46875;SDS011;32866;50.160;14.768;2022-07-18T11:01:51;1.85;;;0.98;;
46875;SDS011;32866;50.160;14.768;2022-07-18T11:04:21;1.67;;;1.58;;
46875;SDS011;32866;50.160;14.768;2022-07-18T11:07:10;1.67;;;0.95;;
46875;SDS011;32866;50.160;14.768;2022-07-18T11:09:41;4.32;;;1.05;;
46875;SDS011;32866;50.160;14.768;2022-07-18T11:20:34;1.67;;;1.27;;
46875;SDS011;32866;50.160;14.768;2022-07-18T11:23:26;1.17;;;1.00;;
46875;SDS011;32866;50.160;14.768;2022-07-18T11:25:52;3.80;;;1.00;;
46875;SDS011;32866;50.160;14.768;2022-07-18T11:28:22;1.77;;;0.88;;
46875;SDS011;32866;50.160;14.768;2022-07-18T11:31:02;1.27;;;0.90;;
46875;SDS011;32866;50.160;14.768;2022-07-18T11:33:30;1.58;;;1.10;;
46875;SDS011;32866;50.160;14.768;2022-07-18T11:36:07;1.55;;;0.75;;
46875;SDS011;32866;50.160;14.768;2022-07-18T11:38:37;1.45;;;0.90;;
46875;SDS011;32866;50.160;14.768;2022-07-18T11:41:04;3.03;;;1.02;;
46875;SDS011;32866;50.160;14.768;2022-07-18T11:43:29;1.65;;;1.00;;
46875;SDS011;32866;50.160;14.768;2022-07-18T11:46:02;2.40;;;1.23;;
46875;SDS011;32866;50.160;14.768;2022-07-18T11:48:29;1.45;;;1.05;;
46875;SDS011;32866;50.160;14.768;2022-07-18T11:50:55;1.80;;;1.08;;
46875;SDS011;32866;50.160;14.768;2022-07-18T11:53:21;1.90;;;0.95;;
46875;SDS011;32866;50.160;14.768;2022-07-18T11:55:46;2.95;;;1.05;;
46875;SDS011;32866;50.160;14.768;2022-07-18T11:58:14;4.38;;;1.35;;
46875;SDS011;32866;50.160;14.768;2022-07-18T12:00:40;3.50;;;1.15;;
46875;SDS011;32866;50.160;14.768;2022-07-18T12:03:16;1.10;;;0.82;;
46875;SDS011;32866;50.160;14.768;2022-07-18T12:05:48;2.42;;;0.93;;
46875;SDS011;32866;50.160;14.768;2022-07-18T12:11:07;2.78;;;1.23;;
46875;SDS011;32866;50.160;14.768;2022-07-18T12:16:07;1.17;;;0.80;;
46875;SDS011;32866;50.160;14.768;2022-07-18T12:18:32;3.67;;;1.10;;
46875;SDS011;32866;50.160;14.768;2022-07-18T12:21:10;2.33;;;1.05;;
46875;SDS011;32866;50.160;14.768;2022-07-18T12:23:35;1.90;;;1.17;;
46875;SDS011;32866;50.160;14.768;2022-07-18T12:26:00;2.03;;;1.48;;
46875;SDS011;32866;50.160;14.768;2022-07-18T12:28:27;1.55;;;1.25;;
46875;SDS011;32866;50.160;14.768;2022-07-18T12:30:53;1.95;;;1.05;;
46875;SDS011;32866;50.160;14.768;2022-07-18T12:33:19;4.60;;;0.95;;
46875;SDS011;32866;50.160;14.768;2022-07-18T12:35:45;4.43;;;0.98;;
46875;SDS011;32866;50.160;14.768;2022-07-18T12:38:13;3.38;;;1.17;;
46875;SDS011;32866;50.160;14.768;2022-07-18T12:46:12;1.08;;;0.95;;
46875;SDS011;32866;50.160;14.768;2022-07-18T12:48:38;1.15;;;0.70;;
46875;SDS011;32866;50.160;14.768;2022-07-18T12:53:29;2.30;;;1.10;;
46875;SDS011;32866;50.160;14.768;2022-07-18T12:55:56;1.33;;;0.98;;
46875;SDS011;32866;50.160;14.768;2022-07-18T12:58:22;4.10;;;1.40;;
46875;SDS011;32866;50.160;14.768;2022-07-18T13:00:47;2.65;;;1.10;;
46875;SDS011;32866;50.160;14.768;2022-07-18T13:03:14;1.13;;;1.02;;
46875;SDS011;32866;50.160;14.768;2022-07-18T13:05:39;4.75;;;1.17;;
46875;SDS011;32866;50.160;14.768;2022-07-18T13:08:05;3.58;;;1.20;;
46875;SDS011;32866;50.160;14.768;2022-07-18T13:10:32;2.13;;;1.02;;
46875;SDS011;32866;50.160;14.768;2022-07-18T13:13:00;1.23;;;1.10;;
46875;SDS011;32866;50.160;14.768;2022-07-18T13:15:26;1.60;;;1.40;;
46875;SDS011;32866;50.160;14.768;2022-07-18T13:17:52;2.75;;;1.10;;
46875;SDS011;32866;50.160;14.768;2022-07-18T13:20:17;1.23;;;1.08;;
46875;SDS011;32866;50.160;14.768;2022-07-18T13:22:43;13.25;;;1.45;;
46875;SDS011;32866;50.160;14.768;2022-07-18T13:25:09;2.85;;;1.02;;
46875;SDS011;32866;50.160;14.768;2022-07-18T13:27:35;1.83;;;0.95;;
46875;SDS011;32866;50.160;14.768;2022-07-18T13:30:03;3.60;;;1.30;;
46875;SDS011;32866;50.160;14.768;2022-07-18T13:32:30;1.65;;;0.93;;
46875;SDS011;32866;50.160;14.768;2022-07-18T13:34:55;1.65;;;1.15;;
46875;SDS011;32866;50.160;14.768;2022-07-18T13:37:21;4.25;;;1.42;;
46875;SDS011;32866;50.160;14.768;2022-07-18T13:39:47;4.28;;;1.10;;
46875;SDS011;32866;50.160;14.768;2022-07-18T13:42:13;1.77;;;0.95;;
46875;SDS011;32866;50.160;14.768;2022-07-18T13:44:38;5.20;;;1.30;;
46875;SDS011;32866;50.160;14.768;2022-07-18T13:47:04;1.90;;;1.15;;
46875;SDS011;32866;50.160;14.768;2022-07-18T13:49:29;1.58;;;1.10;;
46875;SDS011;32866;50.160;14.768;2022-07-18T13:51:55;1.50;;;1.00;;
46875;SDS011;32866;50.160;14.768;2022-07-18T13:54:21;2.65;;;1.33;;
46875;SDS011;32866;50.160;14.768;2022-07-18T13:56:46;1.83;;;1.02;;
46875;SDS011;32866;50.160;14.768;2022-07-18T13:59:11;0.93;;;0.75;;
46875;SDS011;32866;50.160;14.768;2022-07-18T14:01:37;2.15;;;1.35;;
46875;SDS011;32866;50.160;14.768;2022-07-18T14:04:03;2.88;;;1.20;;
46875;SDS011;32866;50.160;14.768;2022-07-18T14:06:29;3.75;;;1.10;;
46875;SDS011;32866;50.160;14.768;2022-07-18T14:08:54;2.17;;;0.80;;
46875;SDS011;32866;50.160;14.768;2022-07-18T14:11:19;2.88;;;1.35;;
46875;SDS011;32866;50.160;14.768;2022-07-18T14:13:45;1.23;;;1.05;;
46875;SDS011;32866;50.160;14.768;2022-07-18T14:16:12;2.28;;;1.17;;
46875;SDS011;32866;50.160;14.768;2022-07-18T14:18:37;1.67;;;1.00;;
46875;SDS011;32866;50.160;14.768;2022-07-18T14:21:03;2.92;;;1.13;;
46875;SDS011;32866;50.160;14.768;2022-07-18T14:23:28;1.38;;;0.80;;
46875;SDS011;32866;50.160;14.768;2022-07-18T14:25:53;5.80;;;1.02;;
46875;SDS011;32866;50.160;14.768;2022-07-18T14:28:19;0.95;;;0.70;;
46875;SDS011;32866;50.160;14.768;2022-07-18T14:30:44;1.63;;;1.08;;
46875;SDS011;32866;50.160;14.768;2022-07-18T14:33:10;2.90;;;1.10;;
46875;SDS011;32866;50.160;14.768;2022-07-18T14:35:35;2.95;;;1.17;;
46875;SDS011;32866;50.160;14.768;2022-07-18T14:38:00;4.68;;;2.10;;
46875;SDS011;32866;50.160;14.768;2022-07-18T14:40:26;3.20;;;1.50;;
46875;SDS011;32866;50.160;14.768;2022-07-18T14:42:51;1.73;;;1.10;;
46875;SDS011;32866;50.160;14.768;2022-07-18T14:45:17;3.17;;;0.90;;
46875;SDS011;32866;50.160;14.768;2022-07-18T14:47:42;2.83;;;1.50;;
46875;SDS011;32866;50.160;14.768;2022-07-18T14:50:08;1.55;;;0.90;;
46875;SDS011;32866;50.160;14.768;2022-07-18T14:52:35;6.65;;;1.35;;
46875;SDS011;32866;50.160;14.768;2022-07-18T14:55:01;2.00;;;1.25;;
46875;SDS011;32866;50.160;14.768;2022-07-18T14:57:27;2.53;;;1.25;;
46875;SDS011;32866;50.160;14.768;2022-07-18T14:59:52;1.67;;;1.20;;
46875;SDS011;32866;50.160;14.768;2022-07-18T15:02:17;1.92;;;1.30;;
46875;SDS011;32866;50.160;14.768;2022-07-18T15:04:43;1.60;;;1.10;;
46875;SDS011;32866;50.160;14.768;2022-07-18T15:07:08;2.45;;;1.25;;
46875;SDS011;32866;50.160;14.768;2022-07-18T15:09:34;1.15;;;0.98;;
46875;SDS011;32866;50.160;14.768;2022-07-18T15:11:59;5.82;;;1.20;;
46875;SDS011;32866;50.160;14.768;2022-07-18T15:14:25;2.20;;;1.15;;
46875;SDS011;32866;50.160;14.768;2022-07-18T15:16:52;1.83;;;1.10;;
46875;SDS011;32866;50.160;14.768;2022-07-18T15:19:17;2.92;;;0.93;;
46875;SDS011;32866;50.160;14.768;2022-07-18T15:21:42;3.65;;;1.65;;
46875;SDS011;32866;50.160;14.768;2022-07-18T15:24:08;3.88;;;1.10;;
46875;SDS011;32866;50.160;14.768;2022-07-18T15:26:33;4.63;;;1.10;;
46875;SDS011;32866;50.160;14.768;2022-07-18T15:28:59;1.92;;;1.00;;
46875;SDS011;32866;50.160;14.768;2022-07-18T15:31:25;2.03;;;1.08;;
46875;SDS011;32866;50.160;14.768;2022-07-18T15:33:50;1.90;;;1.05;;
46875;SDS011;32866;50.160;14.768;2022-07-18T15:36:15;3.17;;;0.90;;
46875;SDS011;32866;50.160;14.768;2022-07-18T15:38:41;2.00;;;1.00;;
46875;SDS011;32866;50.160;14.768;2022-07-18T15:41:07;1.90;;;0.90;;
46875;SDS011;32866;50.160;14.768;2022-07-18T15:43:34;2.38;;;0.73;;
46875;SDS011;32866;50.160;14.768;2022-07-18T15:46:00;1.92;;;1.02;;
46875;SDS011;32866;50.160;14.768;2022-07-18T15:48:25;2.97;;;1.60;;
46875;SDS011;32866;50.160;14.768;2022-07-18T15:50:50;1.48;;;0.88;;
46875;SDS011;32866;50.160;14.768;2022-07-18T15:53:16;2.42;;;1.25;;
46875;SDS011;32866;50.160;14.768;2022-07-18T15:55:41;2.10;;;1.10;;
46875;SDS011;32866;50.160;14.768;2022-07-18T15:58:07;2.72;;;1.10;;